Time;durP1;ratioP1;P1;durP2;ratioP2;P2;SDS_P1;SDS_P2;PMS_P1;PMS_P2;Temp;Humidity;BMP_temperature;BMP_pressure;BME280_temperature;BME280_humidity;BME280_pressure;Samples;Min_cycle;Max_cycle;Signal;HPM_P1;HPM_P2
2021/12/17 00:01:40;;;;;;;26.40;19.83;;;4.80;99.90;;;;;;5059106;28;20214;-69
2021/12/17 00:04:24;;;;;;;29.25;20.02;;;4.80;99.90;;;;;;5059296;28;20169;-69
2021/12/17 00:06:50;;;;;;;26.20;19.67;;;4.80;99.90;;;;;;5058151;28;20197;-69
2021/12/17 00:09:15;;;;;;;30.05;19.13;;;4.80;99.90;;;;;;5058237;28;20180;-69
2021/12/17 00:11:41;;;;;;;25.40;19.67;;;4.80;99.90;;;;;;5057438;28;20258;-68
2021/12/17 00:14:07;;;;;;;29.63;20.23;;;4.70;99.90;;;;;;5059314;28;20185;-69
2021/12/17 00:16:38;;;;;;;25.90;18.73;;;4.60;99.90;;;;;;5058534;28;20647;-69
2021/12/17 00:19:38;;;;;;;30.20;21.50;;;4.60;99.90;;;;;;5058460;28;20636;-69
2021/12/17 00:48:24;;;;;;;66.70;29.77;;;4.40;99.90;;;;;;5055580;28;20703;-69
2021/12/17 00:49:27;;;;;;;52.10;29.52;;;4.50;99.90;;;;;;5055825;28;20281;-69
2021/12/17 00:51:58;;;;;;;50.47;29.35;;;4.50;99.90;;;;;;5055527;28;20266;-69
2021/12/17 00:54:39;;;;;;;46.00;26.48;;;4.50;99.90;;;;;;5055862;28;20170;-69
2021/12/17 00:57:18;;;;;;;52.08;28.38;;;4.50;99.90;;;;;;5055434;28;20172;-69
2021/12/17 00:59:50;;;;;;;44.47;27.98;;;4.60;99.90;;;;;;5055992;28;20516;-69
2021/12/17 01:02:20;;;;;;;51.58;28.95;;;4.50;99.90;;;;;;5055387;28;20159;-69
2021/12/17 01:04:50;;;;;;;52.13;28.02;;;4.50;99.90;;;;;;5055652;28;20156;-69
2021/12/17 01:07:18;;;;;;;60.78;32.80;;;4.50;99.90;;;;;;5055122;28;20289;-69
2021/12/17 01:09:45;;;;;;;50.78;31.13;;;4.50;99.90;;;;;;5055776;28;20167;-69
2021/12/17 01:12:12;;;;;;;60.15;36.40;;;4.40;99.90;;;;;;5055079;28;20274;-69
2021/12/17 01:14:40;;;;;;;46.10;32.30;;;4.40;99.90;;;;;;5053918;28;20631;-69
2021/12/17 01:17:08;;;;;;;45.55;30.80;;;4.30;99.90;;;;;;5055148;28;20202;-69
2021/12/17 01:24:57;;;;;;;41.65;29.10;;;4.20;99.90;;;;;;5054458;28;20178;-68
2021/12/17 01:35:39;;;;;;;39.47;28.07;;;4.10;99.90;;;;;;5053496;28;20169;-69
2021/12/17 01:39:19;;;;;;;37.58;29.05;;;4.10;99.90;;;;;;5054092;28;20186;-69
2021/12/17 01:41:45;;;;;;;41.55;25.95;;;4.10;99.90;;;;;;5054089;28;20190;-69
2021/12/17 01:44:00;;;;;;;38.35;24.90;;;4.10;99.90;;;;;;5054473;28;20190;-69
2021/12/17 01:46:30;;;;;;;35.42;24.83;;;4.00;99.90;;;;;;5052985;28;20190;-68
2021/12/17 02:00:17;;;;;;;25.83;21.02;;;4.00;99.90;;;;;;5054613;28;20654;-69
2021/12/17 02:02:47;;;;;;;26.47;20.97;;;4.00;99.90;;;;;;5054506;28;20158;-69
2021/12/17 02:05:14;;;;;;;26.13;20.90;;;4.10;99.90;;;;;;5054730;28;20304;-68
2021/12/17 02:07:41;;;;;;;23.17;18.23;;;4.10;99.90;;;;;;5052542;28;20691;-68
2021/12/17 02:29:24;;;;;;;36.13;19.35;;;4.50;99.90;;;;;;5054307;28;20221;-69
2021/12/17 02:32:00;;;;;;;17.20;14.80;;;4.40;99.90;;;;;;5053396;28;20520;-68
2021/12/17 02:34:58;;;;;;;14.13;12.70;;;4.30;99.90;;;;;;5054192;28;20175;-68
2021/12/17 02:37:27;;;;;;;14.00;12.43;;;4.40;99.90;;;;;;5053544;28;20265;-69
2021/12/17 02:48:09;;;;;;;20.33;14.45;;;4.40;99.90;;;;;;5053549;28;20221;-69
2021/12/17 02:50:38;;;;;;;33.28;17.80;;;4.50;99.90;;;;;;5053259;28;20208;-69
2021/12/17 02:53:07;;;;;;;17.58;13.20;;;4.60;99.90;;;;;;5053845;28;20231;-69
2021/12/17 02:55:35;;;;;;;18.95;14.48;;;4.50;99.90;;;;;;5053128;28;20547;-69
2021/12/17 02:58:01;;;;;;;23.02;16.83;;;4.50;99.90;;;;;;5053522;28;20175;-66
2021/12/17 03:00:28;;;;;;;19.70;13.48;;;4.60;99.90;;;;;;5053030;28;20189;-69
2021/12/17 03:02:55;;;;;;;15.52;13.02;;;4.70;99.90;;;;;;5053749;28;20240;-69
2021/12/17 03:05:23;;;;;;;30.38;17.17;;;4.60;99.90;;;;;;5052724;28;20178;-65
2021/12/17 03:07:50;;;;;;;14.70;13.20;;;4.50;99.90;;;;;;5051934;28;20206;-68
2021/12/17 03:10:16;;;;;;;22.98;14.75;;;4.60;99.90;;;;;;5052352;28;20171;-68
2021/12/17 03:12:47;;;;;;;19.83;15.13;;;4.60;99.90;;;;;;5053028;28;20262;-69
2021/12/17 03:25:48;;;;;;;19.17;14.57;;;4.70;99.90;;;;;;5051819;28;20587;-69
2021/12/17 03:28:13;;;;;;;18.35;13.95;;;4.60;99.90;;;;;;5053095;28;20245;-68
2021/12/17 03:30:39;;;;;;;26.85;15.07;;;4.60;99.90;;;;;;5052408;28;20175;-69
2021/12/17 03:33:05;;;;;;;17.70;15.23;;;4.60;99.90;;;;;;5052351;28;20178;-69
2021/12/17 03:35:30;;;;;;;37.40;16.05;;;4.80;99.90;;;;;;5052532;28;20544;-69
2021/12/17 03:37:56;;;;;;;23.38;16.27;;;4.70;99.90;;;;;;5052134;28;20200;-69
2021/12/17 03:40:22;;;;;;;19.80;14.93;;;4.80;99.90;;;;;;5052637;28;20178;-69
2021/12/17 03:42:50;;;;;;;23.17;15.20;;;4.70;99.90;;;;;;5053040;28;20596;-69
2021/12/17 03:45:18;;;;;;;20.48;15.02;;;4.60;99.90;;;;;;5052795;28;20197;-65
2021/12/17 03:47:45;;;;;;;21.60;15.10;;;4.60;99.90;;;;;;5052853;28;20237;-69
2021/12/17 03:50:11;;;;;;;16.10;13.40;;;4.60;99.90;;;;;;5052899;28;20181;-69
2021/12/17 03:52:37;;;;;;;21.13;14.32;;;4.70;99.90;;;;;;5051372;28;20209;-68
2021/12/17 03:55:04;;;;;;;29.15;17.35;;;4.70;99.90;;;;;;5052698;28;20206;-69
2021/12/17 03:57:30;;;;;;;49.80;22.88;;;4.80;99.90;;;;;;5051303;28;20179;-69
2021/12/17 03:59:56;;;;;;;16.05;14.02;;;4.70;99.90;;;;;;5053134;28;20198;-69
2021/12/17 04:02:21;;;;;;;16.63;13.80;;;4.60;99.90;;;;;;5052179;28;20175;-69
2021/12/17 04:04:47;;;;;;;18.33;14.25;;;4.50;99.90;;;;;;5052769;28;20178;-69
2021/12/17 04:07:13;;;;;;;15.43;13.80;;;4.50;99.90;;;;;;5052057;28;20214;-68
2021/12/17 04:09:39;;;;;;;16.10;14.45;;;4.30;99.90;;;;;;5051761;28;20501;-69
2021/12/17 04:12:10;;;;;;;17.05;13.73;;;4.40;99.90;;;;;;5052081;28;20187;-69
2021/12/17 04:14:44;;;;;;;16.92;14.02;;;4.30;99.90;;;;;;5051548;28;20190;-69
2021/12/17 04:17:10;;;;;;;14.80;13.10;;;4.20;99.90;;;;;;5051923;28;20205;-69
2021/12/17 04:19:36;;;;;;;16.05;14.07;;;4.30;99.90;;;;;;5038473;28;20175;-69
2021/12/17 04:22:04;;;;;;;17.35;13.88;;;4.20;99.90;;;;;;5055881;28;20175;-69
2021/12/17 04:24:30;;;;;;;15.85;13.27;;;4.20;99.90;;;;;;5055547;28;20620;-69
2021/12/17 04:26:55;;;;;;;15.48;13.98;;;4.20;99.90;;;;;;5054990;28;20233;-69
2021/12/17 04:29:22;;;;;;;18.98;15.65;;;4.20;99.90;;;;;;5056279;28;20686;-69
2021/12/17 04:31:53;;;;;;;15.95;14.25;;;4.30;99.90;;;;;;5054426;28;20185;-69
2021/12/17 04:34:20;;;;;;;15.50;13.93;;;4.30;99.90;;;;;;5056447;28;20166;-70
2021/12/17 04:36:49;;;;;;;20.75;16.60;;;4.30;99.90;;;;;;5054492;28;20183;-69
2021/12/17 04:39:19;;;;;;;30.40;17.85;;;4.40;99.90;;;;;;5056083;28;20186;-68
2021/12/17 04:41:56;;;;;;;15.45;13.88;;;4.40;99.90;;;;;;5055451;28;20536;-69
2021/12/17 04:57:13;;;;;;;20.08;17.83;;;4.40;99.90;;;;;;5055467;28;20378;-69
2021/12/17 04:57:40;;;;;;;26.65;16.10;;;4.40;99.90;;;;;;5055234;28;20589;-69
2021/12/17 05:00:14;;;;;;;31.10;17.55;;;4.40;99.90;;;;;;5054834;28;20182;-69
2021/12/17 05:02:44;;;;;;;21.45;16.38;;;4.30;99.90;;;;;;5055043;28;20498;-69
2021/12/17 05:05:11;;;;;;;47.78;21.85;;;4.30;99.90;;;;;;5054584;28;20162;-68
2021/12/17 05:07:43;;;;;;;25.30;16.83;;;4.30;99.90;;;;;;5055111;28;20212;-68
2021/12/17 05:10:21;;;;;;;22.70;17.73;;;4.40;99.90;;;;;;5055863;28;20212;-69
2021/12/17 05:20:49;;;;;;;26.77;17.30;;;4.60;99.90;;;;;;5055251;28;20264;-69
2021/12/17 05:23:19;;;;;;;39.47;20.73;;;4.60;99.90;;;;;;5055600;28;20171;-69
2021/12/17 05:25:45;;;;;;;22.65;15.88;;;4.60;99.90;;;;;;5054745;28;20162;-70
2021/12/17 05:28:11;;;;;;;30.85;18.02;;;4.70;99.90;;;;;;5037502;28;20218;-69
2021/12/17 05:30:39;;;;;;;26.25;17.63;;;4.70;99.90;;;;;;5054223;28;20193;-69
2021/12/17 05:33:05;;;;;;;39.78;19.80;;;4.70;99.90;;;;;;5053837;28;20193;-69
2021/12/17 05:35:30;;;;;;;36.75;19.73;;;4.80;99.90;;;;;;5053419;28;20655;-69
2021/12/17 05:37:56;;;;;;;50.17;22.80;;;4.90;99.90;;;;;;5055270;28;20187;-70
2021/12/17 05:40:22;;;;;;;43.70;20.90;;;4.90;99.90;;;;;;5036772;28;20217;-65
2021/12/17 05:42:50;;;;;;;44.30;20.17;;;4.90;99.90;;;;;;5054860;28;20624;-69
2021/12/17 05:48:06;;;;;;;37.58;21.48;;;5.00;99.90;;;;;;5054701;28;20213;-68
2021/12/17 05:50:33;;;;;;;40.60;20.50;;;5.10;99.90;;;;;;5054189;28;20171;-70
2021/12/17 05:52:59;;;;;;;37.85;21.13;;;5.00;99.90;;;;;;5054991;28;20629;-70
2021/12/17 05:55:25;;;;;;;40.92;21.83;;;5.10;99.90;;;;;;5054235;28;20186;-66
2021/12/17 05:57:52;;;;;;;41.65;22.75;;;5.10;99.90;;;;;;5054520;28;20281;-69
2021/12/17 06:00:19;;;;;;;42.95;24.17;;;5.10;99.90;;;;;;5054289;28;20171;-66
2021/12/17 06:02:45;;;;;;;51.95;25.27;;;5.20;99.90;;;;;;5054449;28;20177;-70
2021/12/17 06:05:11;;;;;;;56.17;23.60;;;5.30;99.90;;;;;;5054408;28;20171;-68
2021/12/17 06:07:36;;;;;;;98.40;32.45;;;5.30;99.90;;;;;;5053805;28;20209;-64
2021/12/17 06:10:04;;;;;;;38.15;24.63;;;5.40;99.90;;;;;;5053983;28;20266;-67
2021/12/17 06:12:30;;;;;;;43.20;21.77;;;5.60;99.90;;;;;;5052191;28;20175;-67
2021/12/17 06:14:56;;;;;;;33.88;23.35;;;5.50;99.90;;;;;;5054313;28;20524;-67
2021/12/17 06:17:22;;;;;;;39.33;24.25;;;5.50;99.90;;;;;;5052441;28;20171;-68
2021/12/17 06:19:48;;;;;;;36.92;20.88;;;5.40;99.90;;;;;;5053863;28;20209;-68
2021/12/17 06:22:15;;;;;;;72.07;26.25;;;5.40;99.90;;;;;;5036148;28;20188;-67
2021/12/17 06:24:44;;;;;;;54.38;24.65;;;5.40;99.90;;;;;;5054328;28;20694;-68
2021/12/17 06:27:18;;;;;;;31.75;22.98;;;5.40;99.90;;;;;;5052355;28;20207;-68
2021/12/17 06:29:44;;;;;;;37.75;21.73;;;5.40;99.90;;;;;;5054341;28;20167;-68
2021/12/17 06:32:11;;;;;;;49.08;25.88;;;5.40;99.90;;;;;;5053166;28;20209;-67
2021/12/17 06:34:36;;;;;;;58.35;31.13;;;5.30;99.90;;;;;;5036244;28;20177;-67
2021/12/17 06:37:03;;;;;;;56.33;28.63;;;5.40;99.90;;;;;;5052255;28;20207;-67
2021/12/17 06:39:29;;;;;;;95.88;30.33;;;5.40;99.90;;;;;;5054116;28;20245;-67
2021/12/17 06:41:55;;;;;;;60.55;29.65;;;5.40;99.90;;;;;;5034631;28;20282;-67
2021/12/17 06:44:24;;;;;;;64.32;30.88;;;5.50;99.90;;;;;;5052709;28;20174;-67
2021/12/17 06:46:59;;;;;;;51.08;29.65;;;5.50;99.90;;;;;;5053337;28;20182;-67
2021/12/17 06:55:13;;;;;;;53.47;27.65;;;5.70;99.90;;;;;;5053691;28;20198;-67
2021/12/17 06:58:31;;;;;;;67.85;29.30;;;5.70;99.90;;;;;;5053230;28;20170;-67
2021/12/17 07:06:09;;;;;;;96.38;37.40;;;5.80;99.90;;;;;;5053014;28;20529;-67
2021/12/17 07:11:36;;;;;;;109.35;45.33;;;5.90;99.90;;;;;;5053008;28;20178;-67
2021/12/17 07:40:24;;;;;;;122.63;42.17;;;6.10;99.90;;;;;;5052617;28;20173;-67
2021/12/17 07:42:50;;;;;;;102.63;42.25;;;6.10;99.90;;;;;;5052974;28;20175;-67
2021/12/17 07:45:16;;;;;;;95.68;42.65;;;6.10;99.90;;;;;;5052938;28;20594;-66
2021/12/17 07:47:41;;;;;;;107.93;44.30;;;6.10;99.90;;;;;;5051243;28;20210;-68
2021/12/17 07:50:07;;;;;;;82.70;41.72;;;6.10;99.90;;;;;;5052342;28;20244;-66
2021/12/17 07:52:33;;;;;;;188.57;61.15;;;6.20;99.90;;;;;;5053752;28;20540;-68
2021/12/17 07:54:58;;;;;;;162.63;54.47;;;6.20;99.90;;;;;;5039286;28;20182;-68
2021/12/17 07:57:24;;;;;;;137.10;47.75;;;6.10;99.90;;;;;;5056728;28;20195;-68
2021/12/17 07:59:51;;;;;;;115.70;44.42;;;6.20;99.90;;;;;;5057096;28;20174;-68
2021/12/17 08:02:16;;;;;;;134.07;47.90;;;6.20;99.90;;;;;;5056369;28;20211;-68
2021/12/17 08:04:42;;;;;;;160.55;51.00;;;6.30;99.90;;;;;;5055870;28;20642;-68
2021/12/17 08:07:08;;;;;;;148.73;49.25;;;6.30;99.90;;;;;;5054612;28;20209;-67
2021/12/17 08:09:33;;;;;;;153.38;47.20;;;6.20;99.90;;;;;;5055758;28;20266;-67
2021/12/17 08:11:59;;;;;;;106.53;43.45;;;6.20;99.90;;;;;;5056216;28;20632;-68
2021/12/17 08:14:27;;;;;;;128.57;48.95;;;6.30;99.90;;;;;;5056289;28;20266;-67
2021/12/17 08:17:51;;;;;;;86.40;36.40;;;6.40;99.90;;;;;;5054888;28;20197;-68
2021/12/17 08:27:28;;;;;;;74.72;34.50;;;6.70;99.90;;;;;;5055901;28;20225;-67
2021/12/17 08:30:40;;;;;;;67.43;32.83;;;6.60;99.90;;;;;;5056711;28;20515;-68
2021/12/17 08:32:42;;;;;;;64.40;30.30;;;6.60;99.90;;;;;;5047150;28;20629;-68
2021/12/17 08:35:09;;;;;;;65.72;27.55;;;6.60;99.90;;;;;;5055929;28;20170;-68
2021/12/17 08:37:35;;;;;;;65.82;32.72;;;6.60;99.90;;;;;;5055749;28;20229;-68
2021/12/17 08:40:00;;;;;;;87.68;33.50;;;6.50;99.90;;;;;;5056351;28;20182;-65
2021/12/17 08:42:26;;;;;;;77.57;36.22;;;6.60;99.90;;;;;;5054453;28;20709;-68
2021/12/17 08:44:52;;;;;;;68.93;31.50;;;6.50;99.90;;;;;;5056264;28;20209;-67
2021/12/17 08:47:19;;;;;;;78.88;36.13;;;6.50;99.90;;;;;;5055544;28;20694;-68
2021/12/17 08:49:45;;;;;;;77.45;33.35;;;6.50;99.90;;;;;;5056205;28;20182;-67
2021/12/17 08:52:13;;;;;;;78.05;36.30;;;6.50;99.90;;;;;;5053955;28;20179;-68
2021/12/17 08:54:39;;;;;;;90.40;36.42;;;6.60;99.90;;;;;;5056124;28;20170;-67
2021/12/17 08:57:05;;;;;;;90.80;36.55;;;6.50;99.90;;;;;;5055352;28;20237;-67
2021/12/17 08:59:31;;;;;;;75.10;34.20;;;6.50;99.90;;;;;;5054768;28;20571;-67
2021/12/17 09:01:57;;;;;;;81.75;31.02;;;6.50;99.90;;;;;;5054060;28;20182;-68
2021/12/17 09:04:27;;;;;;;72.65;29.25;;;6.60;99.90;;;;;;5055049;28;20179;-68
2021/12/17 09:06:56;;;;;;;79.72;30.98;;;6.60;99.90;;;;;;5053967;28;20231;-68
2021/12/17 09:09:22;;;;;;;77.55;31.25;;;6.70;99.90;;;;;;5055618;28;20186;-68
2021/12/17 09:11:49;;;;;;;75.72;34.28;;;6.80;99.90;;;;;;5055113;28;20179;-68
2021/12/17 09:14:19;;;;;;;81.03;35.38;;;6.90;99.90;;;;;;5055567;28;20544;-67
2021/12/17 09:16:47;;;;;;;79.65;38.38;;;6.90;99.90;;;;;;5055136;28;20206;-68
2021/12/17 09:19:12;;;;;;;68.55;35.38;;;6.90;99.90;;;;;;5055670;28;20179;-68
2021/12/17 09:21:38;;;;;;;81.28;37.90;;;6.90;99.90;;;;;;5055121;28;20643;-67
2021/12/17 09:24:04;;;;;;;78.25;36.35;;;6.90;99.90;;;;;;5055992;28;20265;-68
2021/12/17 09:26:32;;;;;;;76.38;38.33;;;7.00;99.90;;;;;;5054956;28;20179;-68
2021/12/17 09:28:59;;;;;;;81.43;36.45;;;6.90;99.90;;;;;;5055174;28;20202;-68
2021/12/17 09:31:25;;;;;;;96.80;37.03;;;6.90;99.90;;;;;;5054724;28;20186;-67
2021/12/17 09:33:51;;;;;;;103.55;46.70;;;7.00;99.90;;;;;;5055563;28;20179;-68
2021/12/17 09:36:19;;;;;;;116.50;47.97;;;7.00;99.90;;;;;;5053223;28;20187;-68
2021/12/17 09:38:49;;;;;;;86.07;41.60;;;7.20;99.90;;;;;;5055252;28;20229;-68
2021/12/17 09:41:16;;;;;;;106.63;43.55;;;7.10;99.90;;;;;;5054753;28;20252;-68
2021/12/17 09:43:42;;;;;;;109.80;55.65;;;7.10;99.90;;;;;;5054816;28;20695;-68
2021/12/17 09:46:07;;;;;;;97.57;45.97;;;7.10;99.90;;;;;;5054145;28;20278;-68
2021/12/17 09:48:35;;;;;;;100.28;41.10;;;7.30;99.90;;;;;;5037066;28;20210;-68
2021/12/17 09:51:03;;;;;;;99.03;42.97;;;7.20;99.90;;;;;;5036775;28;20175;-66
2021/12/17 09:53:29;;;;;;;94.18;42.00;;;7.20;99.90;;;;;;5054909;28;20180;-68
2021/12/17 09:55:55;;;;;;;92.78;40.40;;;7.20;99.90;;;;;;5054082;28;20232;-68
2021/12/17 09:58:20;;;;;;;91.72;37.97;;;7.30;99.90;;;;;;5055204;28;20184;-68
2021/12/17 10:00:46;;;;;;;91.00;42.25;;;7.20;99.90;;;;;;5054150;28;20203;-69
2021/12/17 10:03:12;;;;;;;108.63;42.10;;;7.20;99.90;;;;;;5054335;28;20597;-68
2021/12/17 10:05:39;;;;;;;98.57;42.10;;;7.30;99.90;;;;;;5054130;28;20190;-68
2021/12/17 10:08:17;;;;;;;100.60;44.28;;;7.50;99.90;;;;;;5054663;28;20215;-68
2021/12/17 10:10:45;;;;;;;101.82;43.40;;;7.40;99.90;;;;;;5054099;28;20524;-69
2021/12/17 10:13:20;;;;;;;106.35;45.55;;;7.50;99.90;;;;;;5054463;28;20174;-68
2021/12/17 10:15:49;;;;;;;114.47;45.97;;;7.60;99.90;;;;;;5053765;28;20263;-68
2021/12/17 10:18:17;;;;;;;97.00;42.90;;;7.60;99.90;;;;;;5054813;28;20181;-68
2021/12/17 10:20:51;;;;;;;98.80;43.38;;;7.70;99.90;;;;;;5052430;28;20179;-68
2021/12/17 10:23:19;;;;;;;103.25;40.55;;;7.60;99.90;;;;;;5054443;28;20177;-68
2021/12/17 10:25:45;;;;;;;105.20;43.95;;;7.70;99.90;;;;;;5053935;28;20251;-68
2021/12/17 10:28:13;;;;;;;95.63;43.38;;;7.60;99.90;;;;;;5054384;28;20245;-68
2021/12/17 10:30:40;;;;;;;103.25;44.17;;;7.60;99.90;;;;;;5053452;28;20179;-68
2021/12/17 10:33:09;;;;;;;94.75;43.17;;;7.70;99.90;;;;;;5054141;28;20185;-68
2021/12/17 10:35:43;;;;;;;87.75;43.15;;;7.70;99.90;;;;;;5053547;28;20171;-68
2021/12/17 10:38:12;;;;;;;109.20;45.22;;;7.60;99.90;;;;;;5052998;28;20174;-68
2021/12/17 10:40:54;;;;;;;85.55;37.22;;;7.80;99.90;;;;;;5052105;28;20598;-68
2021/12/17 10:43:34;;;;;;;89.15;41.03;;;7.80;99.90;;;;;;5053870;28;20685;-68
2021/12/17 10:46:22;;;;;;;90.78;39.63;;;7.90;99.90;;;;;;5053255;28;20223;-69
2021/12/17 10:48:53;;;;;;;78.47;40.67;;;7.80;99.90;;;;;;5053702;28;20543;-68
2021/12/17 10:54:19;;;;;;;81.28;38.55;;;7.70;99.90;;;;;;5053935;28;20221;-68
2021/12/17 10:56:51;;;;;;;88.15;41.20;;;7.70;99.90;;;;;;5053187;28;20170;-68
2021/12/17 10:59:19;;;;;;;82.72;39.75;;;7.60;99.90;;;;;;5053250;28;20174;-68
2021/12/17 11:01:59;;;;;;;70.10;38.55;;;7.60;99.90;;;;;;5052835;28;20667;-68
2021/12/17 11:04:31;;;;;;;72.72;38.08;;;7.60;99.90;;;;;;5054028;28;20619;-67
2021/12/17 11:06:58;;;;;;;74.65;38.05;;;7.60;99.90;;;;;;5052779;28;20602;-68
2021/12/17 11:09:38;;;;;;;67.20;38.40;;;7.70;99.90;;;;;;5053662;28;20202;-68
2021/12/17 11:12:22;;;;;;;73.03;37.10;;;7.90;99.90;;;;;;5053031;28;20160;-68
2021/12/17 11:14:48;;;;;;;63.30;38.10;;;7.70;99.90;;;;;;5053269;28;20637;-68
2021/12/17 11:17:16;;;;;;;63.85;39.20;;;7.80;99.90;;;;;;5052645;28;20199;-67
2021/12/17 11:19:43;;;;;;;60.38;37.50;;;7.80;99.90;;;;;;5053504;28;20174;-68
2021/12/17 11:22:09;;;;;;;55.58;33.17;;;7.70;99.90;;;;;;5052891;28;20178;-68
2021/12/17 11:24:37;;;;;;;53.97;33.90;;;7.80;99.90;;;;;;5053471;28;20178;-68
2021/12/17 11:27:07;;;;;;;58.55;35.03;;;7.70;99.90;;;;;;5052016;28;20178;-68
2021/12/17 11:29:33;;;;;;;52.03;32.67;;;7.70;99.90;;;;;;5053109;28;20181;-68
2021/12/17 11:32:00;;;;;;;42.85;27.42;;;7.70;99.90;;;;;;5051514;28;20215;-68
2021/12/17 11:34:27;;;;;;;43.80;27.77;;;7.80;99.90;;;;;;5053145;28;20175;-68
2021/12/17 11:36:54;;;;;;;46.22;29.00;;;7.70;99.90;;;;;;5052636;28;20187;-69
2021/12/17 11:39:27;;;;;;;47.47;31.45;;;7.80;99.90;;;;;;5052421;28;20179;-68
2021/12/17 11:42:06;;;;;;;46.35;31.05;;;7.90;99.90;;;;;;5052766;28;20170;-68
2021/12/17 11:44:42;;;;;;;46.47;29.65;;;7.90;99.90;;;;;;5053107;28;20163;-69
2021/12/17 11:47:12;;;;;;;46.05;30.15;;;7.80;99.90;;;;;;5052597;28;20169;-68
2021/12/17 11:49:49;;;;;;;45.22;30.05;;;7.80;99.90;;;;;;5053210;28;20187;-68
2021/12/17 11:52:36;;;;;;;51.13;31.23;;;7.80;99.90;;;;;;5052517;28;20247;-68
2021/12/17 11:55:20;;;;;;;52.67;34.83;;;7.80;99.90;;;;;;5052939;28;20189;-68
2021/12/17 11:57:48;;;;;;;62.00;36.97;;;7.90;99.90;;;;;;5052990;28;20182;-69
2021/12/17 12:00:16;;;;;;;56.65;34.88;;;7.90;99.90;;;;;;5052856;28;20178;-68
2021/12/17 12:02:55;;;;;;;58.03;36.35;;;8.00;99.90;;;;;;5051401;28;20255;-69
2021/12/17 12:05:35;;;;;;;67.88;38.58;;;8.10;99.90;;;;;;5052901;28;20159;-67
2021/12/17 12:08:24;;;;;;;55.45;32.55;;;8.00;99.90;;;;;;5053147;28;20270;-68
2021/12/17 12:11:10;;;;;;;48.80;27.27;;;8.10;99.90;;;;;;5052383;28;20183;-68
2021/12/17 12:13:44;;;;;;;45.03;25.40;;;8.20;99.90;;;;;;5052995;28;20162;-68
2021/12/17 12:16:16;;;;;;;42.30;24.35;;;8.20;99.90;;;;;;5050753;28;20210;-68
2021/12/17 12:18:53;;;;;;;42.35;23.83;;;8.10;99.90;;;;;;5053078;28;20162;-69
2021/12/17 12:21:24;;;;;;;40.80;22.75;;;8.10;99.90;;;;;;5052139;28;20644;-68
2021/12/17 12:23:52;;;;;;;45.75;23.70;;;8.20;99.90;;;;;;5051907;28;20194;-68
2021/12/17 12:26:22;;;;;;;40.95;23.25;;;8.20;99.90;;;;;;5052226;28;20163;-68
2021/12/17 12:28:56;;;;;;;44.47;23.92;;;8.10;99.90;;;;;;5053059;28;20191;-68
2021/12/17 12:31:31;;;;;;;40.95;23.63;;;8.20;99.90;;;;;;5051990;28;20503;-69
2021/12/17 12:36:55;;;;;;;43.58;23.50;;;8.30;99.90;;;;;;5052113;28;20175;-68
2021/12/17 12:39:30;;;;;;;42.33;23.65;;;8.30;99.90;;;;;;5053084;28;20179;-69
2021/12/17 12:41:56;;;;;;;44.08;24.63;;;8.20;99.90;;;;;;5055545;28;20174;-68
2021/12/17 12:44:42;;;;;;;44.92;25.15;;;8.30;99.90;;;;;;5056604;28;20182;-69
2021/12/17 12:47:25;;;;;;;46.08;24.90;;;8.40;99.90;;;;;;5051427;28;20199;-68
2021/12/17 12:49:59;;;;;;;51.97;26.08;;;8.40;99.90;;;;;;5056308;28;20156;-68
2021/12/17 12:52:33;;;;;;;52.55;26.15;;;8.40;99.90;;;;;;5055378;28;20192;-67
2021/12/17 12:55:03;;;;;;;44.90;25.02;;;8.50;99.90;;;;;;5056134;28;20167;-68
2021/12/17 12:57:35;;;;;;;39.50;22.55;;;8.40;99.90;;;;;;5055462;28;20186;-69
2021/12/17 13:00:10;;;;;;;42.63;23.35;;;8.30;99.90;;;;;;5055769;28;20267;-69
2021/12/17 13:02:37;;;;;;;42.88;24.10;;;8.30;99.90;;;;;;5055330;28;20178;-66
2021/12/17 13:05:06;;;;;;;39.53;22.70;;;8.30;99.90;;;;;;5054539;28;20633;-69
2021/12/17 13:07:44;;;;;;;49.10;25.25;;;8.30;99.90;;;;;;5053938;28;20210;-69
2021/12/17 13:10:13;;;;;;;41.28;24.58;;;8.40;99.90;;;;;;5055805;28;20171;-69
2021/12/17 13:12:40;;;;;;;49.95;27.38;;;8.40;99.90;;;;;;5055081;28;20168;-69
2021/12/17 13:15:38;;;;;;;47.10;26.58;;;8.50;99.90;;;;;;5055467;28;20187;-69
2021/12/17 13:24:09;;;;;;;41.13;26.13;;;8.50;99.90;;;;;;5055830;28;20170;-68
2021/12/17 13:26:35;;;;;;;47.70;28.25;;;8.40;99.90;;;;;;5054916;28;20632;-69
2021/12/17 13:29:10;;;;;;;51.33;29.38;;;8.40;99.90;;;;;;5054998;28;20550;-68
2021/12/17 13:31:46;;;;;;;45.05;27.52;;;8.30;99.90;;;;;;5054876;28;20159;-69
2021/12/17 13:34:35;;;;;;;44.58;28.13;;;8.20;99.90;;;;;;5055323;28;20174;-69
2021/12/17 13:37:08;;;;;;;51.50;31.23;;;8.30;99.90;;;;;;5054642;28;20245;-67
2021/12/17 13:39:54;;;;;;;56.17;32.78;;;8.30;99.90;;;;;;5054998;28;20159;-69
2021/12/17 13:42:27;;;;;;;54.53;33.95;;;8.40;99.90;;;;;;5054588;28;20170;-69
2021/12/17 13:44:55;;;;;;;63.08;37.35;;;8.50;99.90;;;;;;5055226;28;20171;-69
2021/12/17 13:47:32;;;;;;;67.80;40.05;;;8.50;99.90;;;;;;5054343;28;20264;-69
2021/12/17 13:50:19;;;;;;;72.25;40.78;;;8.50;99.90;;;;;;5054931;28;20163;-69
2021/12/17 13:52:54;;;;;;;57.38;35.22;;;8.50;99.90;;;;;;5054804;28;20160;-67
2021/12/17 13:55:27;;;;;;;51.70;34.15;;;8.50;99.90;;;;;;5054110;28;20285;-69
2021/12/17 13:57:54;;;;;;;57.63;33.92;;;8.40;99.90;;;;;;5055074;28;20225;-67
2021/12/17 14:00:25;;;;;;;59.20;34.90;;;8.40;99.90;;;;;;5053456;28;20179;-69
2021/12/17 14:02:54;;;;;;;54.05;30.98;;;8.40;99.90;;;;;;5054582;28;20525;-69
2021/12/17 14:05:27;;;;;;;44.45;30.02;;;8.50;99.90;;;;;;5054398;28;20254;-66
2021/12/17 14:07:55;;;;;;;46.15;28.58;;;8.40;99.90;;;;;;5053522;28;20207;-67
2021/12/17 14:10:24;;;;;;;52.47;30.75;;;8.40;99.90;;;;;;5054274;28;20171;-68
2021/12/17 14:12:50;;;;;;;57.70;31.90;;;8.50;99.90;;;;;;5054929;28;20171;-67
2021/12/17 14:15:22;;;;;;;44.58;28.58;;;8.60;99.90;;;;;;5054336;28;20233;-69
2021/12/17 14:17:52;;;;;;;48.58;29.15;;;8.50;99.90;;;;;;5054931;28;20284;-69
2021/12/17 14:20:21;;;;;;;52.20;29.13;;;8.50;99.90;;;;;;5054367;28;20156;-68
2021/12/17 14:22:55;;;;;;;42.17;28.85;;;8.50;99.90;;;;;;5054331;28;20175;-69
2021/12/17 14:25:35;;;;;;;48.20;30.77;;;8.50;99.90;;;;;;5053715;28;20510;-68
2021/12/17 14:28:21;;;;;;;43.33;27.40;;;8.50;99.90;;;;;;5054473;28;20247;-68
2021/12/17 14:31:01;;;;;;;39.28;26.00;;;8.50;99.90;;;;;;5053733;28;20152;-69
2021/12/17 14:33:34;;;;;;;38.22;24.92;;;8.50;99.90;;;;;;5053399;28;20163;-69
2021/12/17 14:36:09;;;;;;;46.10;26.73;;;8.40;99.90;;;;;;5053407;28;20213;-69
2021/12/17 14:38:44;;;;;;;44.53;25.73;;;8.60;99.90;;;;;;5054286;28;20221;-69
2021/12/17 14:41:24;;;;;;;40.45;25.80;;;8.50;99.90;;;;;;5053498;28;20220;-69
2021/12/17 14:44:03;;;;;;;37.92;24.85;;;8.40;99.90;;;;;;5054128;28;20154;-69
2021/12/17 14:46:45;;;;;;;33.58;22.70;;;8.40;99.90;;;;;;5053431;28;20644;-69
2021/12/17 15:05:47;;;;;;;33.13;20.13;;;8.50;99.90;;;;;;5052918;28;20160;-70
2021/12/17 15:08:13;;;;;;;37.17;26.20;;;8.50;99.90;;;;;;5053568;28;20206;-68
2021/12/17 15:10:39;;;;;;;29.95;22.23;;;8.50;99.90;;;;;;5053348;28;20186;-69
2021/12/17 15:13:06;;;;;;;27.42;20.15;;;8.50;99.90;;;;;;5053886;28;20225;-69
2021/12/17 15:15:35;;;;;;;36.22;27.88;;;8.50;99.90;;;;;;5052534;28;20201;-69
2021/12/17 15:18:03;;;;;;;25.70;19.33;;;8.30;99.90;;;;;;5052277;28;20182;-68
2021/12/17 15:20:31;;;;;;;50.63;39.30;;;8.30;99.90;;;;;;5051561;28;20178;-69
2021/12/17 15:22:59;;;;;;;38.28;30.58;;;8.30;99.90;;;;;;5053447;28;20191;-69
2021/12/17 15:25:27;;;;;;;25.40;18.25;;;8.40;99.90;;;;;;5052523;28;20175;-69
2021/12/17 15:27:52;;;;;;;27.40;20.67;;;8.60;99.90;;;;;;5052121;28;20213;-69
2021/12/17 15:30:24;;;;;;;24.60;18.73;;;8.60;99.90;;;;;;5053152;28;20183;-66
2021/12/17 15:32:50;;;;;;;28.40;20.02;;;8.70;99.90;;;;;;5053511;28;20254;-69
2021/12/17 15:35:19;;;;;;;30.60;22.00;;;8.70;99.90;;;;;;5051969;28;20689;-70
2021/12/17 15:37:46;;;;;;;29.83;21.50;;;8.70;99.90;;;;;;5051847;28;20187;-68
2021/12/17 15:40:12;;;;;;;29.73;21.92;;;8.80;99.90;;;;;;5053312;28;20180;-69
2021/12/17 15:42:38;;;;;;;29.63;22.38;;;8.70;99.90;;;;;;5052589;28;20188;-68
2021/12/17 15:45:06;;;;;;;31.95;23.50;;;8.50;99.90;;;;;;5051869;28;20225;-69
2021/12/17 15:47:33;;;;;;;33.60;23.40;;;8.50;99.90;;;;;;5052529;28;20659;-68
2021/12/17 15:49:59;;;;;;;35.35;25.42;;;8.40;99.90;;;;;;5053229;28;20229;-69
2021/12/17 15:52:24;;;;;;;38.47;26.52;;;8.40;99.90;;;;;;5052557;28;20567;-67
2021/12/17 15:54:51;;;;;;;38.75;27.00;;;8.40;99.90;;;;;;5035237;28;20257;-69
2021/12/17 15:57:16;;;;;;;38.80;27.08;;;8.40;99.90;;;;;;5052418;28;20228;-68